Menomonee Falls, Wisconsin
Current Conditions -  °F | °C
As of 6:45 PM on Tuesday 27 Jan 2015 (Local Time) from KMWC Reporting Station
Overcast Overcast  
Wind Chill: 27°   Ceiling: 2900
Heat Index: 27°   Visibility: 10mi
Dew Point: 16°   Wind: 0mph
Humidity: 64%   Direction: NA
Pressure: 30.25"   Gusts: NA
Location:  43.17°N, 88.1°W
Report Text: KMWC 280045Z AUTO 00000KT 10SM OVC029 M03/M09 A3025
Loading
Personal Weather Stations






























Interactive Weather Map New forecast layout! Learn more

10-Day Weather Forecast

Advertisements
Track Severe Weather on mobile